sensor_id;sensor_type;location;lat;lon;timestamp;P1;durP1;ratioP1;P2;durP2;ratioP2
62572;SDS011;48626;51.678;5.806;2022-07-18T00:01:52;7.05;;;4.15;;
62572;SDS011;48626;51.678;5.806;2022-07-18T00:04:19;9.82;;;3.83;;
62572;SDS011;48626;51.678;5.806;2022-07-18T00:06:44;7.57;;;4.38;;
62572;SDS011;48626;51.678;5.806;2022-07-18T00:09:10;10.00;;;4.10;;
62572;SDS011;48626;51.678;5.806;2022-07-18T00:11:35;7.80;;;3.58;;
62572;SDS011;48626;51.678;5.806;2022-07-18T00:14:01;6.50;;;3.83;;
62572;SDS011;48626;51.678;5.806;2022-07-18T00:16:27;8.45;;;4.40;;
62572;SDS011;48626;51.678;5.806;2022-07-18T00:18:54;7.47;;;3.97;;
62572;SDS011;48626;51.678;5.806;2022-07-18T00:21:20;10.30;;;4.47;;
62572;SDS011;48626;51.678;5.806;2022-07-18T00:23:46;7.20;;;3.97;;
62572;SDS011;48626;51.678;5.806;2022-07-18T00:26:12;9.07;;;3.95;;
62572;SDS011;48626;51.678;5.806;2022-07-18T00:28:37;8.25;;;4.38;;
62572;SDS011;48626;51.678;5.806;2022-07-18T00:31:03;7.75;;;3.90;;
62572;SDS011;48626;51.678;5.806;2022-07-18T00:33:29;8.50;;;4.30;;
62572;SDS011;48626;51.678;5.806;2022-07-18T00:35:54;7.22;;;3.80;;
62572;SDS011;48626;51.678;5.806;2022-07-18T00:38:20;8.10;;;4.07;;
62572;SDS011;48626;51.678;5.806;2022-07-18T00:40:46;8.00;;;3.85;;
62572;SDS011;48626;51.678;5.806;2022-07-18T00:43:13;14.30;;;4.20;;
62572;SDS011;48626;51.678;5.806;2022-07-18T00:45:39;7.30;;;3.47;;
62572;SDS011;48626;51.678;5.806;2022-07-18T00:48:12;8.55;;;4.30;;
62572;SDS011;48626;51.678;5.806;2022-07-18T00:50:40;7.35;;;3.88;;
62572;SDS011;48626;51.678;5.806;2022-07-18T00:53:07;11.10;;;3.85;;
62572;SDS011;48626;51.678;5.806;2022-07-18T00:55:35;6.90;;;3.85;;
62572;SDS011;48626;51.678;5.806;2022-07-18T00:58:03;10.18;;;4.05;;
62572;SDS011;48626;51.678;5.806;2022-07-18T01:00:29;8.23;;;4.10;;
62572;SDS011;48626;51.678;5.806;2022-07-18T01:03:13;11.18;;;4.00;;
62572;SDS011;48626;51.678;5.806;2022-07-18T01:05:39;6.60;;;3.80;;
62572;SDS011;48626;51.678;5.806;2022-07-18T01:08:05;7.95;;;3.75;;
62572;SDS011;48626;51.678;5.806;2022-07-18T01:10:31;6.38;;;3.60;;
62572;SDS011;48626;51.678;5.806;2022-07-18T01:12:57;6.63;;;3.35;;
62572;SDS011;48626;51.678;5.806;2022-07-18T01:15:22;7.72;;;3.70;;
62572;SDS011;48626;51.678;5.806;2022-07-18T01:17:48;5.95;;;3.85;;
62572;SDS011;48626;51.678;5.806;2022-07-18T01:20:14;13.13;;;3.90;;
62572;SDS011;48626;51.678;5.806;2022-07-18T01:22:40;10.60;;;4.38;;
62572;SDS011;48626;51.678;5.806;2022-07-18T01:25:07;5.28;;;3.60;;
62572;SDS011;48626;51.678;5.806;2022-07-18T01:27:33;5.97;;;3.60;;
62572;SDS011;48626;51.678;5.806;2022-07-18T01:29:59;9.75;;;4.00;;
62572;SDS011;48626;51.678;5.806;2022-07-18T01:32:25;9.35;;;3.55;;
62572;SDS011;48626;51.678;5.806;2022-07-18T01:34:50;7.40;;;3.65;;
62572;SDS011;48626;51.678;5.806;2022-07-18T01:37:16;9.88;;;4.10;;
62572;SDS011;48626;51.678;5.806;2022-07-18T01:39:43;13.45;;;4.20;;
62572;SDS011;48626;51.678;5.806;2022-07-18T01:42:09;6.57;;;3.90;;
62572;SDS011;48626;51.678;5.806;2022-07-18T01:44:36;9.15;;;3.88;;
62572;SDS011;48626;51.678;5.806;2022-07-18T01:47:04;8.40;;;4.18;;
62572;SDS011;48626;51.678;5.806;2022-07-18T01:49:31;9.55;;;4.03;;
62572;SDS011;48626;51.678;5.806;2022-07-18T01:51:57;6.90;;;4.05;;
62572;SDS011;48626;51.678;5.806;2022-07-18T01:54:27;7.18;;;3.88;;
62572;SDS011;48626;51.678;5.806;2022-07-18T01:56:54;8.98;;;3.90;;
62572;SDS011;48626;51.678;5.806;2022-07-18T01:59:20;6.00;;;4.20;;
62572;SDS011;48626;51.678;5.806;2022-07-18T02:01:47;10.98;;;4.40;;
62572;SDS011;48626;51.678;5.806;2022-07-18T02:04:13;6.90;;;4.10;;
62572;SDS011;48626;51.678;5.806;2022-07-18T02:06:39;8.75;;;4.30;;
62572;SDS011;48626;51.678;5.806;2022-07-18T02:09:04;10.32;;;4.50;;
62572;SDS011;48626;51.678;5.806;2022-07-18T02:11:32;13.63;;;5.65;;
62572;SDS011;48626;51.678;5.806;2022-07-18T02:13:57;11.85;;;4.45;;
62572;SDS011;48626;51.678;5.806;2022-07-18T02:16:23;7.10;;;3.97;;
62572;SDS011;48626;51.678;5.806;2022-07-18T02:18:49;10.18;;;4.40;;
62572;SDS011;48626;51.678;5.806;2022-07-18T02:21:14;6.05;;;4.15;;
62572;SDS011;48626;51.678;5.806;2022-07-18T02:23:41;10.07;;;4.72;;
62572;SDS011;48626;51.678;5.806;2022-07-18T02:26:07;9.85;;;4.28;;
62572;SDS011;48626;51.678;5.806;2022-07-18T02:28:33;6.60;;;4.30;;
62572;SDS011;48626;51.678;5.806;2022-07-18T02:30:59;9.15;;;4.30;;
62572;SDS011;48626;51.678;5.806;2022-07-18T02:33:25;10.45;;;4.07;;
62572;SDS011;48626;51.678;5.806;2022-07-18T02:35:51;7.43;;;4.40;;
62572;SDS011;48626;51.678;5.806;2022-07-18T02:38:16;9.48;;;4.40;;
62572;SDS011;48626;51.678;5.806;2022-07-18T02:40:42;6.75;;;4.22;;
62572;SDS011;48626;51.678;5.806;2022-07-18T02:43:08;8.30;;;5.07;;
62572;SDS011;48626;51.678;5.806;2022-07-18T02:45:33;8.55;;;4.90;;
62572;SDS011;48626;51.678;5.806;2022-07-18T02:47:59;13.95;;;5.35;;
62572;SDS011;48626;51.678;5.806;2022-07-18T02:50:25;10.15;;;4.75;;
62572;SDS011;48626;51.678;5.806;2022-07-18T02:52:51;10.07;;;4.43;;
62572;SDS011;48626;51.678;5.806;2022-07-18T02:55:17;8.32;;;4.63;;
62572;SDS011;48626;51.678;5.806;2022-07-18T02:57:42;6.57;;;4.30;;
62572;SDS011;48626;51.678;5.806;2022-07-18T03:00:10;12.48;;;4.97;;
62572;SDS011;48626;51.678;5.806;2022-07-18T03:02:37;9.15;;;4.90;;
62572;SDS011;48626;51.678;5.806;2022-07-18T03:05:03;9.07;;;4.57;;
62572;SDS011;48626;51.678;5.806;2022-07-18T03:07:29;10.77;;;4.22;;
62572;SDS011;48626;51.678;5.806;2022-07-18T03:09:55;9.90;;;4.78;;
62572;SDS011;48626;51.678;5.806;2022-07-18T03:12:20;8.05;;;5.00;;
62572;SDS011;48626;51.678;5.806;2022-07-18T03:14:46;9.55;;;4.90;;
62572;SDS011;48626;51.678;5.806;2022-07-18T03:17:12;9.80;;;5.18;;
62572;SDS011;48626;51.678;5.806;2022-07-18T03:19:38;9.07;;;4.88;;
62572;SDS011;48626;51.678;5.806;2022-07-18T03:22:03;10.95;;;5.10;;
62572;SDS011;48626;51.678;5.806;2022-07-18T03:24:29;7.95;;;4.60;;
62572;SDS011;48626;51.678;5.806;2022-07-18T03:26:56;9.45;;;4.90;;
62572;SDS011;48626;51.678;5.806;2022-07-18T03:29:22;10.40;;;4.90;;
62572;SDS011;48626;51.678;5.806;2022-07-18T03:31:48;10.70;;;4.95;;
62572;SDS011;48626;51.678;5.806;2022-07-18T03:34:14;9.60;;;4.97;;
62572;SDS011;48626;51.678;5.806;2022-07-18T03:36:40;16.60;;;5.22;;
62572;SDS011;48626;51.678;5.806;2022-07-18T03:39:09;12.57;;;4.93;;
62572;SDS011;48626;51.678;5.806;2022-07-18T03:41:36;7.35;;;4.68;;
62572;SDS011;48626;51.678;5.806;2022-07-18T03:44:02;7.43;;;4.45;;
62572;SDS011;48626;51.678;5.806;2022-07-18T03:46:29;8.68;;;4.88;;
62572;SDS011;48626;51.678;5.806;2022-07-18T03:48:55;8.55;;;5.13;;
62572;SDS011;48626;51.678;5.806;2022-07-18T03:51:21;9.20;;;5.10;;
62572;SDS011;48626;51.678;5.806;2022-07-18T03:53:47;10.93;;;4.68;;
62572;SDS011;48626;51.678;5.806;2022-07-18T03:56:12;11.88;;;4.88;;
62572;SDS011;48626;51.678;5.806;2022-07-18T03:58:38;15.80;;;5.43;;
62572;SDS011;48626;51.678;5.806;2022-07-18T04:01:04;12.75;;;5.00;;
62572;SDS011;48626;51.678;5.806;2022-07-18T04:03:30;14.13;;;5.47;;
62572;SDS011;48626;51.678;5.806;2022-07-18T04:05:55;8.68;;;4.40;;
62572;SDS011;48626;51.678;5.806;2022-07-18T04:08:21;15.30;;;4.78;;
62572;SDS011;48626;51.678;5.806;2022-07-18T04:10:47;9.73;;;5.00;;
62572;SDS011;48626;51.678;5.806;2022-07-18T04:13:13;9.32;;;5.05;;
62572;SDS011;48626;51.678;5.806;2022-07-18T04:15:39;10.98;;;5.15;;
62572;SDS011;48626;51.678;5.806;2022-07-18T04:18:05;15.43;;;5.63;;
62572;SDS011;48626;51.678;5.806;2022-07-18T04:20:32;10.48;;;5.20;;
62572;SDS011;48626;51.678;5.806;2022-07-18T04:23:00;10.18;;;5.28;;
62572;SDS011;48626;51.678;5.806;2022-07-18T04:25:28;10.38;;;4.78;;
62572;SDS011;48626;51.678;5.806;2022-07-18T04:27:58;11.85;;;5.15;;
62572;SDS011;48626;51.678;5.806;2022-07-18T04:30:25;9.10;;;4.80;;
62572;SDS011;48626;51.678;5.806;2022-07-18T04:32:52;9.85;;;4.50;;
62572;SDS011;48626;51.678;5.806;2022-07-18T04:35:18;12.75;;;4.68;;
62572;SDS011;48626;51.678;5.806;2022-07-18T04:37:44;12.43;;;4.57;;
62572;SDS011;48626;51.678;5.806;2022-07-18T04:40:09;13.25;;;4.90;;
62572;SDS011;48626;51.678;5.806;2022-07-18T04:42:36;12.02;;;4.85;;
62572;SDS011;48626;51.678;5.806;2022-07-18T04:45:02;9.82;;;4.70;;
62572;SDS011;48626;51.678;5.806;2022-07-18T04:47:29;15.45;;;4.90;;
62572;SDS011;48626;51.678;5.806;2022-07-18T04:49:55;14.48;;;5.40;;
62572;SDS011;48626;51.678;5.806;2022-07-18T04:52:21;12.60;;;4.78;;
62572;SDS011;48626;51.678;5.806;2022-07-18T04:54:47;8.32;;;4.57;;
62572;SDS011;48626;51.678;5.806;2022-07-18T04:57:13;11.23;;;5.13;;
62572;SDS011;48626;51.678;5.806;2022-07-18T04:59:42;10.50;;;4.40;;
62572;SDS011;48626;51.678;5.806;2022-07-18T05:02:09;17.70;;;5.22;;
62572;SDS011;48626;51.678;5.806;2022-07-18T05:04:35;13.15;;;4.47;;
62572;SDS011;48626;51.678;5.806;2022-07-18T05:07:02;14.32;;;5.10;;
62572;SDS011;48626;51.678;5.806;2022-07-18T05:09:28;13.52;;;4.97;;
62572;SDS011;48626;51.678;5.806;2022-07-18T05:11:54;12.32;;;5.03;;
62572;SDS011;48626;51.678;5.806;2022-07-18T05:14:20;13.40;;;4.93;;
62572;SDS011;48626;51.678;5.806;2022-07-18T05:16:46;14.68;;;5.10;;
62572;SDS011;48626;51.678;5.806;2022-07-18T05:19:12;15.23;;;4.88;;
62572;SDS011;48626;51.678;5.806;2022-07-18T05:21:40;8.57;;;5.30;;
62572;SDS011;48626;51.678;5.806;2022-07-18T05:24:06;10.23;;;5.30;;
62572;SDS011;48626;51.678;5.806;2022-07-18T05:26:32;10.45;;;5.10;;
62572;SDS011;48626;51.678;5.806;2022-07-18T05:28:58;11.00;;;5.50;;
62572;SDS011;48626;51.678;5.806;2022-07-18T05:31:23;12.50;;;5.18;;
62572;SDS011;48626;51.678;5.806;2022-07-18T05:33:49;15.95;;;5.60;;
62572;SDS011;48626;51.678;5.806;2022-07-18T05:36:15;15.57;;;5.53;;
62572;SDS011;48626;51.678;5.806;2022-07-18T05:38:40;13.25;;;5.75;;
62572;SDS011;48626;51.678;5.806;2022-07-18T05:41:06;10.30;;;5.07;;
62572;SDS011;48626;51.678;5.806;2022-07-18T05:43:32;11.75;;;5.10;;
62572;SDS011;48626;51.678;5.806;2022-07-18T05:45:57;9.32;;;5.22;;
62572;SDS011;48626;51.678;5.806;2022-07-18T05:48:23;11.40;;;5.57;;
62572;SDS011;48626;51.678;5.806;2022-07-18T05:50:48;11.68;;;5.47;;
62572;SDS011;48626;51.678;5.806;2022-07-18T05:53:14;15.07;;;5.88;;
62572;SDS011;48626;51.678;5.806;2022-07-18T05:55:40;9.50;;;5.53;;
62572;SDS011;48626;51.678;5.806;2022-07-18T05:58:05;10.85;;;4.93;;
62572;SDS011;48626;51.678;5.806;2022-07-18T06:00:31;12.57;;;5.45;;
62572;SDS011;48626;51.678;5.806;2022-07-18T06:02:57;8.90;;;5.18;;
62572;SDS011;48626;51.678;5.806;2022-07-18T06:05:22;14.80;;;5.88;;
62572;SDS011;48626;51.678;5.806;2022-07-18T06:07:48;11.25;;;5.45;;
62572;SDS011;48626;51.678;5.806;2022-07-18T06:10:14;13.50;;;5.45;;
62572;SDS011;48626;51.678;5.806;2022-07-18T06:12:40;16.15;;;6.10;;
62572;SDS011;48626;51.678;5.806;2022-07-18T06:15:06;8.43;;;5.00;;
62572;SDS011;48626;51.678;5.806;2022-07-18T06:17:32;10.75;;;5.03;;
62572;SDS011;48626;51.678;5.806;2022-07-18T06:19:58;9.95;;;5.50;;
62572;SDS011;48626;51.678;5.806;2022-07-18T06:22:25;11.82;;;5.65;;
62572;SDS011;48626;51.678;5.806;2022-07-18T06:24:51;10.77;;;5.80;;
62572;SDS011;48626;51.678;5.806;2022-07-18T06:27:16;11.85;;;5.53;;
62572;SDS011;48626;51.678;5.806;2022-07-18T06:29:42;10.35;;;5.53;;
62572;SDS011;48626;51.678;5.806;2022-07-18T06:32:08;12.43;;;5.63;;
62572;SDS011;48626;51.678;5.806;2022-07-18T06:34:34;12.25;;;5.55;;
62572;SDS011;48626;51.678;5.806;2022-07-18T06:36:59;13.95;;;5.55;;
62572;SDS011;48626;51.678;5.806;2022-07-18T06:39:25;11.00;;;5.70;;
62572;SDS011;48626;51.678;5.806;2022-07-18T06:41:50;12.63;;;5.40;;
62572;SDS011;48626;51.678;5.806;2022-07-18T06:44:16;15.60;;;5.85;;
62572;SDS011;48626;51.678;5.806;2022-07-18T06:46:42;23.77;;;5.95;;
62572;SDS011;48626;51.678;5.806;2022-07-18T06:49:08;7.97;;;5.32;;
62572;SDS011;48626;51.678;5.806;2022-07-18T06:51:34;15.77;;;5.07;;
62572;SDS011;48626;51.678;5.806;2022-07-18T06:53:59;12.45;;;4.80;;
62572;SDS011;48626;51.678;5.806;2022-07-18T06:56:25;13.95;;;5.10;;
62572;SDS011;48626;51.678;5.806;2022-07-18T06:58:51;15.10;;;5.35;;
62572;SDS011;48626;51.678;5.806;2022-07-18T07:01:18;11.27;;;5.18;;
62572;SDS011;48626;51.678;5.806;2022-07-18T07:03:44;18.83;;;5.90;;
62572;SDS011;48626;51.678;5.806;2022-07-18T07:06:10;15.27;;;5.00;;
62572;SDS011;48626;51.678;5.806;2022-07-18T07:08:37;15.13;;;5.13;;
62572;SDS011;48626;51.678;5.806;2022-07-18T07:11:03;14.48;;;4.75;;
62572;SDS011;48626;51.678;5.806;2022-07-18T07:13:29;15.07;;;5.00;;
62572;SDS011;48626;51.678;5.806;2022-07-18T07:15:54;10.77;;;4.70;;
62572;SDS011;48626;51.678;5.806;2022-07-18T07:18:20;10.55;;;4.90;;
62572;SDS011;48626;51.678;5.806;2022-07-18T07:20:46;21.30;;;5.38;;
62572;SDS011;48626;51.678;5.806;2022-07-18T07:23:12;7.93;;;4.55;;
62572;SDS011;48626;51.678;5.806;2022-07-18T07:25:38;10.52;;;4.50;;
62572;SDS011;48626;51.678;5.806;2022-07-18T07:28:04;12.02;;;4.80;;
62572;SDS011;48626;51.678;5.806;2022-07-18T07:30:31;7.13;;;4.38;;
62572;SDS011;48626;51.678;5.806;2022-07-18T07:32:58;15.77;;;4.70;;
62572;SDS011;48626;51.678;5.806;2022-07-18T07:35:24;13.20;;;4.70;;
62572;SDS011;48626;51.678;5.806;2022-07-18T07:37:51;14.15;;;4.93;;
62572;SDS011;48626;51.678;5.806;2022-07-18T07:40:18;11.52;;;4.65;;
62572;SDS011;48626;51.678;5.806;2022-07-18T07:42:46;13.38;;;4.97;;
62572;SDS011;48626;51.678;5.806;2022-07-18T07:45:12;14.07;;;4.70;;
62572;SDS011;48626;51.678;5.806;2022-07-18T07:47:39;14.35;;;4.85;;
62572;SDS011;48626;51.678;5.806;2022-07-18T07:50:06;12.65;;;4.95;;
62572;SDS011;48626;51.678;5.806;2022-07-18T07:52:33;16.50;;;4.75;;
62572;SDS011;48626;51.678;5.806;2022-07-18T07:54:59;13.02;;;4.72;;
62572;SDS011;48626;51.678;5.806;2022-07-18T07:57:24;13.82;;;4.82;;
62572;SDS011;48626;51.678;5.806;2022-07-18T07:59:51;12.73;;;4.95;;
62572;SDS011;48626;51.678;5.806;2022-07-18T08:02:17;13.52;;;4.90;;
62572;SDS011;48626;51.678;5.806;2022-07-18T08:04:43;10.95;;;4.43;;
62572;SDS011;48626;51.678;5.806;2022-07-18T08:07:09;15.48;;;4.55;;
62572;SDS011;48626;51.678;5.806;2022-07-18T08:09:35;9.48;;;4.57;;
62572;SDS011;48626;51.678;5.806;2022-07-18T08:12:00;12.20;;;4.82;;
62572;SDS011;48626;51.678;5.806;2022-07-18T08:14:26;13.23;;;5.10;;
62572;SDS011;48626;51.678;5.806;2022-07-18T08:16:52;12.38;;;4.30;;
62572;SDS011;48626;51.678;5.806;2022-07-18T08:19:17;13.25;;;5.00;;
62572;SDS011;48626;51.678;5.806;2022-07-18T08:21:43;11.70;;;4.55;;
62572;SDS011;48626;51.678;5.806;2022-07-18T08:24:08;9.00;;;4.10;;
62572;SDS011;48626;51.678;5.806;2022-07-18T08:26:34;6.30;;;3.20;;
62572;SDS011;48626;51.678;5.806;2022-07-18T08:29:04;12.63;;;4.07;;
62572;SDS011;48626;51.678;5.806;2022-07-18T08:31:30;8.73;;;3.85;;
62572;SDS011;48626;51.678;5.806;2022-07-18T08:33:56;12.02;;;3.70;;
62572;SDS011;48626;51.678;5.806;2022-07-18T08:36:22;10.00;;;3.65;;
62572;SDS011;48626;51.678;5.806;2022-07-18T08:38:47;10.82;;;3.28;;
62572;SDS011;48626;51.678;5.806;2022-07-18T08:41:13;7.70;;;3.22;;
62572;SDS011;48626;51.678;5.806;2022-07-18T08:43:41;9.85;;;3.38;;
62572;SDS011;48626;51.678;5.806;2022-07-18T08:46:08;11.05;;;3.17;;
62572;SDS011;48626;51.678;5.806;2022-07-18T08:48:35;7.22;;;2.70;;
62572;SDS011;48626;51.678;5.806;2022-07-18T08:51:01;5.50;;;2.65;;
62572;SDS011;48626;51.678;5.806;2022-07-18T08:53:27;8.35;;;2.95;;
62572;SDS011;48626;51.678;5.806;2022-07-18T08:55:53;5.63;;;2.60;;
62572;SDS011;48626;51.678;5.806;2022-07-18T08:58:19;5.30;;;2.58;;
62572;SDS011;48626;51.678;5.806;2022-07-18T09:00:45;12.07;;;2.90;;
62572;SDS011;48626;51.678;5.806;2022-07-18T09:03:12;8.32;;;2.75;;
62572;SDS011;48626;51.678;5.806;2022-07-18T09:05:38;15.10;;;3.38;;
62572;SDS011;48626;51.678;5.806;2022-07-18T09:08:17;18.95;;;3.65;;
62572;SDS011;48626;51.678;5.806;2022-07-18T09:10:47;9.15;;;3.47;;
62572;SDS011;48626;51.678;5.806;2022-07-18T09:13:17;7.38;;;3.40;;
62572;SDS011;48626;51.678;5.806;2022-07-18T09:16:06;15.38;;;3.80;;
62572;SDS011;48626;51.678;5.806;2022-07-18T09:18:30;9.43;;;4.00;;
62572;SDS011;48626;51.678;5.806;2022-07-18T09:20:58;6.65;;;3.95;;
62572;SDS011;48626;51.678;5.806;2022-07-18T09:23:27;8.77;;;4.27;;
62572;SDS011;48626;51.678;5.806;2022-07-18T09:25:56;9.85;;;3.92;;
62572;SDS011;48626;51.678;5.806;2022-07-18T09:28:24;10.48;;;3.65;;
62572;SDS011;48626;51.678;5.806;2022-07-18T09:30:51;8.82;;;4.55;;
62572;SDS011;48626;51.678;5.806;2022-07-18T09:33:17;9.18;;;4.30;;
62572;SDS011;48626;51.678;5.806;2022-07-18T09:38:12;13.88;;;4.68;;
62572;SDS011;48626;51.678;5.806;2022-07-18T09:40:47;13.15;;;4.43;;
62572;SDS011;48626;51.678;5.806;2022-07-18T09:43:18;11.48;;;3.70;;
62572;SDS011;48626;51.678;5.806;2022-07-18T09:45:46;9.45;;;3.50;;
62572;SDS011;48626;51.678;5.806;2022-07-18T09:48:20;9.77;;;4.30;;
62572;SDS011;48626;51.678;5.806;2022-07-18T09:50:53;8.98;;;4.50;;
62572;SDS011;48626;51.678;5.806;2022-07-18T09:53:23;11.98;;;3.97;;
62572;SDS011;48626;51.678;5.806;2022-07-18T09:55:58;6.65;;;4.03;;
62572;SDS011;48626;51.678;5.806;2022-07-18T09:58:27;11.15;;;4.63;;
62572;SDS011;48626;51.678;5.806;2022-07-18T10:00:55;6.22;;;3.70;;
62572;SDS011;48626;51.678;5.806;2022-07-18T10:03:22;13.00;;;4.18;;
62572;SDS011;48626;51.678;5.806;2022-07-18T10:05:49;10.95;;;4.50;;
62572;SDS011;48626;51.678;5.806;2022-07-18T10:08:19;16.08;;;5.13;;
62572;SDS011;48626;51.678;5.806;2022-07-18T10:10:47;9.43;;;4.60;;
62572;SDS011;48626;51.678;5.806;2022-07-18T10:13:15;10.43;;;3.88;;
62572;SDS011;48626;51.678;5.806;2022-07-18T10:15:42;8.38;;;3.42;;
62572;SDS011;48626;51.678;5.806;2022-07-18T10:18:17;7.05;;;3.38;;
62572;SDS011;48626;51.678;5.806;2022-07-18T10:23:40;12.05;;;4.05;;
62572;SDS011;48626;51.678;5.806;2022-07-18T10:26:15;12.68;;;4.35;;
62572;SDS011;48626;51.678;5.806;2022-07-18T10:31:27;7.70;;;3.47;;
62572;SDS011;48626;51.678;5.806;2022-07-18T10:33:55;14.73;;;3.65;;
62572;SDS011;48626;51.678;5.806;2022-07-18T10:36:38;5.90;;;3.08;;
62572;SDS011;48626;51.678;5.806;2022-07-18T10:39:11;9.55;;;2.97;;
62572;SDS011;48626;51.678;5.806;2022-07-18T11:02:49;9.90;;;3.30;;
62572;SDS011;48626;51.678;5.806;2022-07-18T11:05:35;6.68;;;2.85;;
62572;SDS011;48626;51.678;5.806;2022-07-18T11:21:16;7.93;;;3.20;;
62572;SDS011;48626;51.678;5.806;2022-07-18T11:23:42;6.57;;;3.00;;
62572;SDS011;48626;51.678;5.806;2022-07-18T11:26:13;10.10;;;3.25;;
62572;SDS011;48626;51.678;5.806;2022-07-18T11:28:40;6.68;;;3.08;;
62572;SDS011;48626;51.678;5.806;2022-07-18T11:31:08;7.88;;;2.75;;
62572;SDS011;48626;51.678;5.806;2022-07-18T11:33:39;9.35;;;3.20;;
62572;SDS011;48626;51.678;5.806;2022-07-18T11:36:10;7.82;;;3.17;;
62572;SDS011;48626;51.678;5.806;2022-07-18T11:38:37;9.52;;;3.15;;
62572;SDS011;48626;51.678;5.806;2022-07-18T11:41:05;6.88;;;3.10;;
62572;SDS011;48626;51.678;5.806;2022-07-18T11:43:30;11.25;;;3.20;;
62572;SDS011;48626;51.678;5.806;2022-07-18T11:46:00;7.03;;;2.70;;
62572;SDS011;48626;51.678;5.806;2022-07-18T11:48:33;9.32;;;3.40;;
62572;SDS011;48626;51.678;5.806;2022-07-18T11:51:00;9.88;;;3.10;;
62572;SDS011;48626;51.678;5.806;2022-07-18T11:53:26;5.85;;;3.03;;
62572;SDS011;48626;51.678;5.806;2022-07-18T11:55:53;8.73;;;3.08;;
62572;SDS011;48626;51.678;5.806;2022-07-18T11:58:20;6.15;;;3.10;;
62572;SDS011;48626;51.678;5.806;2022-07-18T12:00:47;12.05;;;3.47;;
62572;SDS011;48626;51.678;5.806;2022-07-18T12:05:49;10.77;;;3.42;;
62572;SDS011;48626;51.678;5.806;2022-07-18T12:08:31;8.07;;;2.90;;
62572;SDS011;48626;51.678;5.806;2022-07-18T12:13:48;9.48;;;3.00;;
62572;SDS011;48626;51.678;5.806;2022-07-18T12:16:30;5.85;;;3.17;;
62572;SDS011;48626;51.678;5.806;2022-07-18T12:21:49;5.38;;;3.00;;
62572;SDS011;48626;51.678;5.806;2022-07-18T12:24:33;10.45;;;2.97;;
62572;SDS011;48626;51.678;5.806;2022-07-18T12:32:48;4.22;;;2.83;;
62572;SDS011;48626;51.678;5.806;2022-07-18T12:38:07;5.97;;;3.10;;
62572;SDS011;48626;51.678;5.806;2022-07-18T12:40:56;5.35;;;3.00;;
62572;SDS011;48626;51.678;5.806;2022-07-18T12:43:32;4.28;;;3.10;;
62572;SDS011;48626;51.678;5.806;2022-07-18T12:46:02;7.55;;;3.10;;
62572;SDS011;48626;51.678;5.806;2022-07-18T12:48:31;6.43;;;3.05;;
62572;SDS011;48626;51.678;5.806;2022-07-18T12:51:00;9.25;;;3.20;;
62572;SDS011;48626;51.678;5.806;2022-07-18T12:53:31;9.55;;;2.90;;
62572;SDS011;48626;51.678;5.806;2022-07-18T12:55:58;5.90;;;3.08;;
62572;SDS011;48626;51.678;5.806;2022-07-18T12:58:24;4.45;;;2.75;;
62572;SDS011;48626;51.678;5.806;2022-07-18T13:00:50;8.57;;;3.10;;
62572;SDS011;48626;51.678;5.806;2022-07-18T13:03:15;7.63;;;3.10;;
62572;SDS011;48626;51.678;5.806;2022-07-18T13:05:41;4.80;;;3.35;;
62572;SDS011;48626;51.678;5.806;2022-07-18T13:08:07;8.50;;;3.00;;
62572;SDS011;48626;51.678;5.806;2022-07-18T13:10:35;4.93;;;3.05;;
62572;SDS011;48626;51.678;5.806;2022-07-18T13:13:02;11.15;;;3.38;;
62572;SDS011;48626;51.678;5.806;2022-07-18T13:15:32;13.93;;;3.15;;
62572;SDS011;48626;51.678;5.806;2022-07-18T13:17:58;8.60;;;4.45;;
62572;SDS011;48626;51.678;5.806;2022-07-18T13:20:24;11.98;;;3.50;;
62572;SDS011;48626;51.678;5.806;2022-07-18T13:22:50;7.82;;;3.40;;
62572;SDS011;48626;51.678;5.806;2022-07-18T13:25:17;9.32;;;3.58;;
62572;SDS011;48626;51.678;5.806;2022-07-18T13:27:43;6.00;;;2.95;;
62572;SDS011;48626;51.678;5.806;2022-07-18T13:30:09;5.88;;;2.95;;
62572;SDS011;48626;51.678;5.806;2022-07-18T13:32:35;11.10;;;3.50;;
62572;SDS011;48626;51.678;5.806;2022-07-18T13:35:01;8.80;;;3.40;;
62572;SDS011;48626;51.678;5.806;2022-07-18T13:37:27;7.28;;;3.40;;
62572;SDS011;48626;51.678;5.806;2022-07-18T13:39:53;5.65;;;3.20;;
62572;SDS011;48626;51.678;5.806;2022-07-18T13:42:18;7.70;;;3.10;;
62572;SDS011;48626;51.678;5.806;2022-07-18T13:44:44;8.27;;;4.20;;
62572;SDS011;48626;51.678;5.806;2022-07-18T13:47:10;11.05;;;3.55;;
62572;SDS011;48626;51.678;5.806;2022-07-18T13:49:37;11.15;;;3.42;;
62572;SDS011;48626;51.678;5.806;2022-07-18T13:52:03;6.45;;;3.20;;
62572;SDS011;48626;51.678;5.806;2022-07-18T13:54:28;15.80;;;3.83;;
62572;SDS011;48626;51.678;5.806;2022-07-18T13:56:54;5.72;;;4.57;;
62572;SDS011;48626;51.678;5.806;2022-07-18T13:59:20;8.85;;;3.60;;
62572;SDS011;48626;51.678;5.806;2022-07-18T14:01:45;8.85;;;3.20;;
62572;SDS011;48626;51.678;5.806;2022-07-18T14:04:11;5.60;;;3.40;;
62572;SDS011;48626;51.678;5.806;2022-07-18T14:06:36;9.77;;;3.58;;
62572;SDS011;48626;51.678;5.806;2022-07-18T14:09:03;10.57;;;3.70;;
62572;SDS011;48626;51.678;5.806;2022-07-18T14:11:29;5.70;;;3.10;;
62572;SDS011;48626;51.678;5.806;2022-07-18T14:13:57;12.02;;;3.58;;
62572;SDS011;48626;51.678;5.806;2022-07-18T14:16:26;8.18;;;3.47;;
62572;SDS011;48626;51.678;5.806;2022-07-18T14:18:52;7.40;;;3.33;;
62572;SDS011;48626;51.678;5.806;2022-07-18T14:21:17;6.32;;;3.15;;
62572;SDS011;48626;51.678;5.806;2022-07-18T14:23:43;4.97;;;3.10;;
62572;SDS011;48626;51.678;5.806;2022-07-18T14:26:09;15.40;;;3.28;;
62572;SDS011;48626;51.678;5.806;2022-07-18T14:28:34;6.40;;;3.30;;
62572;SDS011;48626;51.678;5.806;2022-07-18T14:31:00;6.15;;;3.28;;
62572;SDS011;48626;51.678;5.806;2022-07-18T14:33:26;5.93;;;3.10;;
62572;SDS011;48626;51.678;5.806;2022-07-18T14:35:51;4.80;;;3.05;;
62572;SDS011;48626;51.678;5.806;2022-07-18T14:38:17;7.32;;;3.00;;
62572;SDS011;48626;51.678;5.806;2022-07-18T14:40:43;4.32;;;3.10;;
62572;SDS011;48626;51.678;5.806;2022-07-18T14:43:08;7.57;;;3.00;;
62572;SDS011;48626;51.678;5.806;2022-07-18T14:45:34;6.50;;;3.13;;
62572;SDS011;48626;51.678;5.806;2022-07-18T14:48:00;6.97;;;2.90;;
62572;SDS011;48626;51.678;5.806;2022-07-18T14:50:25;7.45;;;3.00;;
62572;SDS011;48626;51.678;5.806;2022-07-18T14:52:51;6.28;;;3.00;;
62572;SDS011;48626;51.678;5.806;2022-07-18T14:55:16;6.63;;;2.90;;
62572;SDS011;48626;51.678;5.806;2022-07-18T14:57:42;5.90;;;2.90;;
62572;SDS011;48626;51.678;5.806;2022-07-18T15:00:08;5.65;;;3.13;;
62572;SDS011;48626;51.678;5.806;2022-07-18T15:02:35;9.15;;;3.25;;
62572;SDS011;48626;51.678;5.806;2022-07-18T15:05:04;8.13;;;2.80;;
62572;SDS011;48626;51.678;5.806;2022-07-18T15:07:31;5.78;;;3.05;;
62572;SDS011;48626;51.678;5.806;2022-07-18T15:09:57;6.20;;;2.95;;
62572;SDS011;48626;51.678;5.806;2022-07-18T15:12:23;7.22;;;3.50;;
62572;SDS011;48626;51.678;5.806;2022-07-18T15:14:49;7.82;;;3.47;;
62572;SDS011;48626;51.678;5.806;2022-07-18T15:17:15;6.68;;;3.10;;
62572;SDS011;48626;51.678;5.806;2022-07-18T15:19:41;5.85;;;3.00;;
62572;SDS011;48626;51.678;5.806;2022-07-18T15:22:06;5.05;;;2.83;;
62572;SDS011;48626;51.678;5.806;2022-07-18T15:24:32;7.30;;;3.33;;
62572;SDS011;48626;51.678;5.806;2022-07-18T15:26:58;9.48;;;3.28;;
62572;SDS011;48626;51.678;5.806;2022-07-18T15:29:25;5.93;;;3.42;;
62572;SDS011;48626;51.678;5.806;2022-07-18T15:31:50;6.65;;;2.92;;
62572;SDS011;48626;51.678;5.806;2022-07-18T15:34:16;8.93;;;3.10;;
62572;SDS011;48626;51.678;5.806;2022-07-18T15:36:41;8.35;;;2.75;;
62572;SDS011;48626;51.678;5.806;2022-07-18T15:39:07;6.30;;;3.00;;
62572;SDS011;48626;51.678;5.806;2022-07-18T15:41:33;6.53;;;3.30;;